PWSweather.com
Personal Weather Stations
Station Observations
WARREN
Narre Warren , MelbourneAU

Narre Warren MelbourneAU

Lat: -38.0314269, Lon: 145.3160851

Elevation: 24

Station Type: Digiteck

http://www.aussiedownunder.net/

High Low Average
Temperature 69.1°F20.6°C 51.4°F10.8°C 60.1°F15.6°C
Dew Point 53.2°F11.8°C 44.8°F7.1°C 49.0°F9.4°C
Winds 11.3 mph 18.2 kmh 2.2 mph 3.5 kmh 8.0 mph W12.9 kmh W
Wind Gusts 25.9 mph41.7 kmh 7.6 mph12.2 kmh 17.0 mph27.4 kmh
Humidity 86% 53% 67%
Pressure 29.64 in1003.7 mb 29.45 in997.3 mb -
Precipitation 0.01 in0.3 mm - -
Hour Temp Dew Point Humidity Winds Wind Gusts Pressure Precip Precip Rate Daily Precip Total
12:00 AM 51.6°F10.9°C 46.3°F7.9°C 82% 2.2 mph NW3.5 kmh NW 7.6 mph12.2 kmh 29.47 in998.0 mb 0.00 in0.0 mm 0.00 in0.0 mm 0.00 in0.0 mm
12:15 AM 51.4°F10.8°C 46.1°F7.8°C 82% 2.4 mph NW3.9 kmh NW 7.6 mph12.2 kmh 29.47 in998.0 mb 0.00 in0.0 mm 0.00 in0.0 mm 0.00 in0.0 mm
12:30 AM 52.2°F11.2°C 45.9°F7.7°C 79% 4.6 mph W7.4 kmh W 12.1 mph19.5 kmh 29.47 in998.0 mb 0.00 in0.0 mm 0.00 in0.0 mm 0.00 in0.0 mm
12:45 AM 53.2°F11.8°C 45.9°F7.7°C 76% 9.0 mph W14.5 kmh W 18.3 mph29.5 kmh 29.46 in997.6 mb 0.00 in0.0 mm 0.00 in0.0 mm 0.00 in0.0 mm
01:00 AM 52.7°F11.5°C 46.4°F8.0°C 79% 4.4 mph W7.1 kmh W 10.7 mph17.2 kmh 29.46 in997.6 mb 0.00 in0.0 mm 0.00 in0.0 mm 0.00 in0.0 mm
01:15 AM 53.1°F11.7°C 45.7°F7.6°C 76% 3.8 mph WSW6.1 kmh WSW 9.8 mph15.8 kmh 29.46 in997.6 mb 0.00 in0.0 mm 0.00 in0.0 mm 0.00 in0.0 mm
01:30 AM 53.6°F12.0°C 44.8°F7.1°C 72% 5.1 mph NW8.2 kmh NW 15.9 mph25.6 kmh 29.46 in997.6 mb 0.00 in0.0 mm 0.00 in0.0 mm 0.00 in0.0 mm
01:45 AM 53.6°F12.0°C 45.9°F7.7°C 75% 7.9 mph WNW12.7 kmh WNW 15.9 mph25.6 kmh 29.46 in997.6 mb 0.00 in0.0 mm 0.00 in0.0 mm 0.00 in0.0 mm
02:00 AM 52.5°F11.4°C 47.2°F8.4°C 82% 7.8 mph W12.6 kmh W 23.5 mph37.8 kmh 29.46 in997.6 mb 0.00 in0.0 mm 0.00 in0.0 mm 0.00 in0.0 mm
02:15 AM 51.6°F10.9°C 47.6°F8.7°C 86% 5.6 mph SW9.0 kmh SW 10.7 mph17.2 kmh 29.46 in997.6 mb 0.00 in0.0 mm 0.00 in0.0 mm 0.00 in0.0 mm
02:30 AM 51.8°F11.0°C 47.8°F8.8°C 86% 4.7 mph NW7.6 kmh NW 12.1 mph19.5 kmh 29.45 in997.3 mb 0.00 in0.0 mm 0.00 in0.0 mm 0.00 in0.0 mm
02:45 AM 52.7°F11.5°C 47.7°F8.7°C 83% 5.6 mph WNW9.0 kmh WNW 14.5 mph23.3 kmh 29.45 in997.3 mb 0.01 in0.3 mm 0.04 in1.0 mm 0.01 in0.3 mm
03:00 AM 53.2°F11.8°C 46.9°F8.3°C 79% 6.3 mph NW10.1 kmh NW 14.5 mph23.3 kmh 29.45 in997.3 mb 0.01 in0.3 mm 0.00 in0.0 mm 0.01 in0.3 mm
03:15 AM 53.4°F11.9°C 46.4°F8.0°C 77% 5.4 mph WNW8.7 kmh WNW 14.5 mph23.3 kmh 29.45 in997.3 mb 0.01 in0.3 mm 0.00 in0.0 mm 0.01 in0.3 mm
03:30 AM 53.6°F12.0°C 46.6°F8.1°C 77% 7.2 mph W11.6 kmh W 14.5 mph23.3 kmh 29.45 in997.3 mb 0.01 in0.3 mm 0.00 in0.0 mm 0.01 in0.3 mm
03:45 AM 53.4°F11.9°C 47.1°F8.4°C 79% 6.1 mph WSW9.8 kmh WSW 15.9 mph25.6 kmh 29.45 in997.3 mb 0.00 in0.0 mm 0.00 in0.0 mm 0.01 in0.3 mm
04:00 AM 53.8°F12.1°C 46.4°F8.0°C 76% 6.7 mph W10.8 kmh W 14.5 mph23.3 kmh 29.45 in997.3 mb 0.00 in0.0 mm 0.00 in0.0 mm 0.01 in0.3 mm
04:15 AM 53.2°F11.8°C 47.9°F8.8°C 82% 7.0 mph WNW11.3 kmh WNW 14.5 mph23.3 kmh 29.46 in997.6 mb 0.00 in0.0 mm 0.00 in0.0 mm 0.01 in0.3 mm
04:30 AM 53.8°F12.1°C 47.4°F8.6°C 79% 6.8 mph W10.9 kmh W 15.2 mph24.5 kmh 29.46 in997.6 mb 0.00 in0.0 mm 0.00 in0.0 mm 0.01 in0.3 mm
04:45 AM 54.0°F12.2°C 47.6°F8.7°C 79% 6.4 mph NW10.3 kmh NW 13.0 mph20.9 kmh 29.46 in997.6 mb 0.00 in0.0 mm 0.00 in0.0 mm 0.01 in0.3 mm
05:00 AM 54.1°F12.3°C 47.4°F8.6°C 78% 6.7 mph WSW10.8 kmh WSW 15.2 mph24.5 kmh 29.47 in998.0 mb 0.00 in0.0 mm 0.00 in0.0 mm 0.01 in0.3 mm
05:15 AM 54.3°F12.4°C 47.6°F8.7°C 78% 7.5 mph W12.1 kmh W 16.8 mph27.0 kmh 29.47 in998.0 mb 0.00 in0.0 mm 0.00 in0.0 mm 0.01 in0.3 mm
05:30 AM 54.3°F12.4°C 47.6°F8.7°C 78% 5.4 mph W8.7 kmh W 13.0 mph20.9 kmh 29.47 in998.0 mb 0.00 in0.0 mm 0.00 in0.0 mm 0.01 in0.3 mm
05:45 AM 54.5°F12.5°C 47.8°F8.8°C 78% 6.0 mph WSW9.7 kmh WSW 14.5 mph23.3 kmh 29.48 in998.3 mb 0.00 in0.0 mm 0.00 in0.0 mm 0.01 in0.3 mm
06:00 AM 54.7°F12.6°C 48.0°F8.9°C 78% 6.3 mph WNW10.1 kmh WNW 15.2 mph24.5 kmh 29.48 in998.3 mb 0.00 in0.0 mm 0.00 in0.0 mm 0.01 in0.3 mm
06:15 AM 55.0°F12.8°C 48.3°F9.1°C 78% 6.0 mph WSW9.7 kmh WSW 14.5 mph23.3 kmh 29.48 in998.3 mb 0.00 in0.0 mm 0.00 in0.0 mm 0.01 in0.3 mm
06:30 AM 55.2°F12.9°C 48.1°F8.9°C 77% 5.3 mph W8.5 kmh W 12.1 mph19.5 kmh 29.48 in998.3 mb 0.00 in0.0 mm 0.00 in0.0 mm 0.01 in0.3 mm
06:45 AM 55.4°F13.0°C 48.0°F8.9°C 76% 5.5 mph WNW8.9 kmh WNW 15.2 mph24.5 kmh 29.48 in998.3 mb 0.00 in0.0 mm 0.00 in0.0 mm 0.01 in0.3 mm
07:00 AM 55.6°F13.1°C 48.1°F8.9°C 76% 6.4 mph WNW10.3 kmh WNW 12.1 mph19.5 kmh 29.49 in998.6 mb 0.00 in0.0 mm 0.00 in0.0 mm 0.01 in0.3 mm
07:15 AM 55.9°F13.3°C 48.5°F9.2°C 76% 6.0 mph WNW9.7 kmh WNW 13.6 mph21.9 kmh 29.49 in998.6 mb 0.00 in0.0 mm 0.00 in0.0 mm 0.01 in0.3 mm
07:30 AM 56.3°F13.5°C 48.8°F9.3°C 76% 5.6 mph WNW9.0 kmh WNW 15.9 mph25.6 kmh 29.50 in999.0 mb 0.00 in0.0 mm 0.00 in0.0 mm 0.01 in0.3 mm
07:45 AM 56.7°F13.7°C 49.2°F9.6°C 76% 7.3 mph WNW11.7 kmh WNW 13.0 mph20.9 kmh 29.50 in999.0 mb 0.00 in0.0 mm 0.00 in0.0 mm 0.01 in0.3 mm
08:00 AM 58.1°F14.5°C 50.2°F10.1°C 75% 7.4 mph W11.9 kmh W 18.3 mph29.5 kmh 29.50 in999.0 mb 0.00 in0.0 mm 0.00 in0.0 mm 0.01 in0.3 mm
08:15 AM 58.8°F14.9°C 50.2°F10.1°C 73% 7.0 mph WNW11.3 kmh WNW 18.3 mph29.5 kmh 29.50 in999.0 mb 0.00 in0.0 mm 0.00 in0.0 mm 0.01 in0.3 mm
08:30 AM 60.6°F15.9°C 50.0°F10.0°C 68% 7.1 mph NW11.4 kmh NW 15.2 mph24.5 kmh 29.50 in999.0 mb 0.00 in0.0 mm 0.00 in0.0 mm 0.01 in0.3 mm
08:45 AM 60.6°F15.9°C 49.2°F9.6°C 66% 9.0 mph NW14.5 kmh NW 18.3 mph29.5 kmh 29.50 in999.0 mb 0.00 in0.0 mm 0.00 in0.0 mm 0.01 in0.3 mm
09:00 AM 61.9°F16.6°C 50.0°F10.0°C 65% 8.7 mph WSW14.0 kmh WSW 18.3 mph29.5 kmh 29.50 in999.0 mb 0.00 in0.0 mm 0.00 in0.0 mm 0.01 in0.3 mm
09:15 AM 61.9°F16.6°C 49.2°F9.6°C 63% 10.4 mph WSW16.7 kmh WSW 22.8 mph36.7 kmh 29.49 in998.6 mb 0.00 in0.0 mm 0.00 in0.0 mm 0.01 in0.3 mm
09:30 AM 62.6°F17.0°C 49.4°F9.7°C 62% 10.2 mph WNW16.4 kmh WNW 24.4 mph39.3 kmh 29.50 in999.0 mb 0.00 in0.0 mm 0.00 in0.0 mm 0.01 in0.3 mm
09:45 AM 63.3°F17.4°C 49.7°F9.8°C 61% 9.9 mph NW15.9 kmh NW 21.3 mph34.3 kmh 29.50 in999.0 mb 0.00 in0.0 mm 0.00 in0.0 mm 0.01 in0.3 mm
10:00 AM 65.5°F18.6°C 50.8°F10.4°C 59% 10.4 mph W16.7 kmh W 21.3 mph34.3 kmh 29.50 in999.0 mb 0.00 in0.0 mm 0.00 in0.0 mm 0.01 in0.3 mm
10:15 AM 64.2°F17.9°C 50.5°F10.3°C 61% 9.4 mph W15.1 kmh W 19.0 mph30.6 kmh 29.50 in999.0 mb 0.00 in0.0 mm 0.00 in0.0 mm 0.01 in0.3 mm
10:30 AM 65.1°F18.4°C 50.9°F10.5°C 60% 10.5 mph WSW16.9 kmh WSW 22.1 mph35.6 kmh 29.50 in999.0 mb 0.00 in0.0 mm 0.00 in0.0 mm 0.01 in0.3 mm
10:45 AM 65.3°F18.5°C 51.1°F10.6°C 60% 9.9 mph WNW15.9 kmh WNW 20.6 mph33.2 kmh 29.50 in999.0 mb 0.00 in0.0 mm 0.00 in0.0 mm 0.01 in0.3 mm
11:00 AM 65.8°F18.8°C 51.6°F10.9°C 60% 9.8 mph WSW15.8 kmh WSW 19.0 mph30.6 kmh 29.50 in999.0 mb 0.00 in0.0 mm 0.00 in0.0 mm 0.01 in0.3 mm
11:15 AM 66.9°F19.4°C 51.2°F10.7°C 57% 9.9 mph W15.9 kmh W 22.8 mph36.7 kmh 29.50 in999.0 mb 0.00 in0.0 mm 0.00 in0.0 mm 0.01 in0.3 mm
11:30 AM 66.0°F18.9°C 51.8°F11.0°C 60% 8.3 mph NW13.4 kmh NW 21.3 mph34.3 kmh 29.50 in999.0 mb 0.00 in0.0 mm 0.00 in0.0 mm 0.01 in0.3 mm
11:45 AM 68.0°F20.0°C 53.2°F11.8°C 59% 8.2 mph WSW13.2 kmh WSW 18.3 mph29.5 kmh 29.50 in999.0 mb 0.00 in0.0 mm 0.00 in0.0 mm 0.01 in0.3 mm
12:00 PM 65.7°F18.7°C 51.9°F11.1°C 61% 11.3 mph WNW18.2 kmh WNW 25.9 mph41.7 kmh 29.50 in999.0 mb 0.00 in0.0 mm 0.00 in0.0 mm 0.01 in0.3 mm
12:15 PM 66.7°F19.3°C 52.0°F11.1°C 59% 9.8 mph W15.8 kmh W 20.6 mph33.2 kmh 29.50 in999.0 mb 0.00 in0.0 mm 0.00 in0.0 mm 0.01 in0.3 mm
12:30 PM 67.3°F19.6°C 51.1°F10.6°C 56% 10.7 mph W17.2 kmh W 20.6 mph33.2 kmh 29.50 in999.0 mb 0.00 in0.0 mm 0.00 in0.0 mm 0.01 in0.3 mm
12:45 PM 66.2°F19.0°C 51.9°F11.1°C 60% 11.3 mph WSW18.2 kmh WSW 21.3 mph34.3 kmh 29.50 in999.0 mb 0.00 in0.0 mm 0.00 in0.0 mm 0.01 in0.3 mm
01:00 PM 68.2°F20.1°C 52.4°F11.3°C 57% 9.2 mph SW14.8 kmh SW 19.0 mph30.6 kmh 29.50 in999.0 mb 0.00 in0.0 mm 0.00 in0.0 mm 0.01 in0.3 mm
01:15 PM 65.7°F18.7°C 53.2°F11.8°C 64% 10.0 mph WSW16.1 kmh WSW 22.1 mph35.6 kmh 29.51 in999.3 mb 0.00 in0.0 mm 0.00 in0.0 mm 0.01 in0.3 mm
01:30 PM 65.7°F18.7°C 53.2°F11.8°C 64% 6.5 mph SW10.5 kmh SW 14.5 mph23.3 kmh 29.50 in999.0 mb 0.00 in0.0 mm 0.00 in0.0 mm 0.01 in0.3 mm
01:45 PM 67.5°F19.7°C 53.1°F11.7°C 60% 8.3 mph W13.4 kmh W 18.3 mph29.5 kmh 29.50 in999.0 mb 0.00 in0.0 mm 0.00 in0.0 mm 0.01 in0.3 mm
02:00 PM 67.3°F19.6°C 50.6°F10.3°C 55% 9.5 mph W15.3 kmh W 22.8 mph36.7 kmh 29.50 in999.0 mb 0.00 in0.0 mm 0.00 in0.0 mm 0.01 in0.3 mm
02:15 PM 67.3°F19.6°C 51.5°F10.8°C 57% 10.1 mph WSW16.3 kmh WSW 21.3 mph34.3 kmh 29.50 in999.0 mb 0.00 in0.0 mm 0.00 in0.0 mm 0.01 in0.3 mm
02:30 PM 67.8°F19.9°C 52.5°F11.4°C 58% 8.4 mph W13.5 kmh W 19.0 mph30.6 kmh 29.50 in999.0 mb 0.00 in0.0 mm 0.00 in0.0 mm 0.01 in0.3 mm
02:45 PM 69.1°F20.6°C 52.3°F11.3°C 55% 8.7 mph W14.0 kmh W 22.8 mph36.7 kmh 29.50 in999.0 mb 0.00 in0.0 mm 0.00 in0.0 mm 0.01 in0.3 mm
03:00 PM 68.5°F20.3°C 52.2°F11.2°C 56% 9.5 mph SW15.3 kmh SW 19.7 mph31.7 kmh 29.51 in999.3 mb 0.00 in0.0 mm 0.00 in0.0 mm 0.01 in0.3 mm
03:15 PM 68.5°F20.3°C 51.8°F11.0°C 55% 9.0 mph W14.5 kmh W 21.3 mph34.3 kmh 29.50 in999.0 mb 0.00 in0.0 mm 0.00 in0.0 mm 0.01 in0.3 mm
03:30 PM 67.6°F19.8°C 51.9°F11.1°C 57% 8.8 mph WSW14.2 kmh WSW 19.0 mph30.6 kmh 29.51 in999.3 mb 0.00 in0.0 mm 0.00 in0.0 mm 0.01 in0.3 mm
03:45 PM 67.5°F19.7°C 50.3°F10.2°C 54% 7.7 mph SW12.4 kmh SW 20.6 mph33.2 kmh 29.52 in999.7 mb 0.00 in0.0 mm 0.00 in0.0 mm 0.01 in0.3 mm
04:00 PM 66.0°F18.9°C 50.8°F10.4°C 58% 8.2 mph WNW13.2 kmh WNW 16.8 mph27.0 kmh 29.52 in999.7 mb 0.00 in0.0 mm 0.00 in0.0 mm 0.01 in0.3 mm
04:15 PM 65.8°F18.8°C 51.1°F10.6°C 59% 6.8 mph SW10.9 kmh SW 14.5 mph23.3 kmh 29.52 in999.7 mb 0.00 in0.0 mm 0.00 in0.0 mm 0.01 in0.3 mm
04:30 PM 64.9°F18.3°C 50.3°F10.2°C 59% 8.8 mph S14.2 kmh S 16.8 mph27.0 kmh 29.53 in1000.0 mb 0.00 in0.0 mm 0.00 in0.0 mm 0.01 in0.3 mm
04:45 PM 64.9°F18.3°C 51.2°F10.7°C 61% 6.7 mph WSW10.8 kmh WSW 15.9 mph25.6 kmh 29.53 in1000.0 mb 0.00 in0.0 mm 0.00 in0.0 mm 0.01 in0.3 mm
05:00 PM 65.5°F18.6°C 50.8°F10.4°C 59% 6.7 mph WSW10.8 kmh WSW 17.4 mph28.0 kmh 29.54 in1000.3 mb 0.00 in0.0 mm 0.00 in0.0 mm 0.01 in0.3 mm
05:15 PM 64.8°F18.2°C 49.7°F9.8°C 58% 7.9 mph WSW12.7 kmh WSW 17.4 mph28.0 kmh 29.54 in1000.3 mb 0.00 in0.0 mm 0.00 in0.0 mm 0.01 in0.3 mm
05:30 PM 64.6°F18.1°C 48.5°F9.2°C 56% 8.4 mph SW13.5 kmh SW 20.6 mph33.2 kmh 29.55 in1000.7 mb 0.00 in0.0 mm 0.00 in0.0 mm 0.01 in0.3 mm
05:45 PM 66.0°F18.9°C 48.4°F9.1°C 53% 8.6 mph SSW13.8 kmh SSW 19.7 mph31.7 kmh 29.55 in1000.7 mb 0.00 in0.0 mm 0.00 in0.0 mm 0.01 in0.3 mm
06:00 PM 65.1°F18.4°C 48.1°F8.9°C 54% 9.4 mph SW15.1 kmh SW 19.0 mph30.6 kmh 29.56 in1001.0 mb 0.00 in0.0 mm 0.00 in0.0 mm 0.01 in0.3 mm
06:15 PM 65.5°F18.6°C 48.4°F9.1°C 54% 6.2 mph W10.0 kmh W 14.5 mph23.3 kmh 29.56 in1001.0 mb 0.00 in0.0 mm 0.00 in0.0 mm 0.01 in0.3 mm
06:30 PM 64.4°F18.0°C 48.9°F9.4°C 57% 6.5 mph WSW10.5 kmh WSW 13.0 mph20.9 kmh 29.57 in1001.4 mb 0.00 in0.0 mm 0.00 in0.0 mm 0.01 in0.3 mm
06:45 PM 62.6°F17.0°C 49.0°F9.4°C 61% 6.6 mph SW10.6 kmh SW 14.5 mph23.3 kmh 29.57 in1001.4 mb 0.00 in0.0 mm 0.00 in0.0 mm 0.01 in0.3 mm
07:00 PM 61.0°F16.1°C 47.9°F8.8°C 62% 8.0 mph WSW12.9 kmh WSW 17.4 mph28.0 kmh 29.58 in1001.7 mb 0.00 in0.0 mm 0.00 in0.0 mm 0.01 in0.3 mm
07:15 PM 60.6°F15.9°C 48.0°F8.9°C 63% 6.7 mph W10.8 kmh W 13.0 mph20.9 kmh 29.59 in1002.0 mb 0.00 in0.0 mm 0.00 in0.0 mm 0.01 in0.3 mm
07:30 PM 60.4°F15.8°C 48.2°F9.0°C 64% 5.6 mph SW9.0 kmh SW 15.9 mph25.6 kmh 29.60 in1002.4 mb 0.00 in0.0 mm 0.00 in0.0 mm 0.01 in0.3 mm
07:45 PM 60.4°F15.8°C 48.6°F9.2°C 65% 5.8 mph SW9.3 kmh SW 13.0 mph20.9 kmh 29.59 in1002.0 mb 0.00 in0.0 mm 0.00 in0.0 mm 0.01 in0.3 mm
08:00 PM 60.3°F15.7°C 49.3°F9.6°C 67% 6.2 mph WSW10.0 kmh WSW 14.5 mph23.3 kmh 29.60 in1002.4 mb 0.00 in0.0 mm 0.00 in0.0 mm 0.01 in0.3 mm
08:15 PM 59.5°F15.3°C 49.4°F9.7°C 69% 6.7 mph SW10.8 kmh SW 15.2 mph24.5 kmh 29.62 in1003.0 mb 0.00 in0.0 mm 0.00 in0.0 mm 0.01 in0.3 mm
08:30 PM 59.4°F15.2°C 48.0°F8.9°C 66% 8.5 mph WSW13.7 kmh WSW 17.4 mph28.0 kmh 29.62 in1003.0 mb 0.00 in0.0 mm 0.00 in0.0 mm 0.01 in0.3 mm
08:45 PM 59.5°F15.3°C 46.5°F8.1°C 62% 9.5 mph WNW15.3 kmh WNW 20.6 mph33.2 kmh 29.62 in1003.0 mb 0.00 in0.0 mm 0.00 in0.0 mm 0.01 in0.3 mm
09:00 PM 59.4°F15.2°C 47.2°F8.4°C 64% 7.2 mph WSW11.6 kmh WSW 18.3 mph29.5 kmh 29.63 in1003.4 mb 0.00 in0.0 mm 0.00 in0.0 mm 0.01 in0.3 mm
09:15 PM 59.2°F15.1°C 47.4°F8.6°C 65% 7.8 mph SW12.6 kmh SW 15.9 mph25.6 kmh 29.63 in1003.4 mb 0.00 in0.0 mm 0.00 in0.0 mm 0.01 in0.3 mm
09:30 PM 59.0°F15.0°C 46.9°F8.3°C 64% 7.6 mph SW12.2 kmh SW 15.2 mph24.5 kmh 29.64 in1003.7 mb 0.00 in0.0 mm 0.00 in0.0 mm 0.01 in0.3 mm
09:45 PM 58.8°F14.9°C 47.9°F8.8°C 67% 6.6 mph WSW10.6 kmh WSW 14.5 mph23.3 kmh 29.64 in1003.7 mb 0.00 in0.0 mm 0.00 in0.0 mm 0.01 in0.3 mm
10:00 PM 58.6°F14.8°C 46.9°F8.3°C 65% 8.2 mph WNW13.2 kmh WNW 19.7 mph31.7 kmh 29.64 in1003.7 mb 0.00 in0.0 mm 0.00 in0.0 mm 0.01 in0.3 mm
10:15 PM 58.5°F14.7°C 46.8°F8.2°C 65% 9.7 mph W15.6 kmh W 22.1 mph35.6 kmh 29.64 in1003.7 mb 0.00 in0.0 mm 0.00 in0.0 mm 0.01 in0.3 mm
10:30 PM 58.1°F14.5°C 46.8°F8.2°C 66% 8.8 mph W14.2 kmh W 21.3 mph34.3 kmh 29.64 in1003.7 mb 0.00 in0.0 mm 0.00 in0.0 mm 0.01 in0.3 mm
10:45 PM 57.7°F14.3°C 47.7°F8.7°C 69% 9.1 mph WSW14.6 kmh WSW 18.3 mph29.5 kmh 29.64 in1003.7 mb 0.00 in0.0 mm 0.00 in0.0 mm 0.01 in0.3 mm
11:00 PM 57.6°F14.2°C 47.9°F8.8°C 70% 8.5 mph WSW13.7 kmh WSW 19.0 mph30.6 kmh 29.63 in1003.4 mb 0.00 in0.0 mm 0.00 in0.0 mm 0.01 in0.3 mm
11:15 PM 57.2°F14.0°C 47.5°F8.6°C 70% 7.6 mph W12.2 kmh W 22.1 mph35.6 kmh 29.63 in1003.4 mb 0.00 in0.0 mm 0.00 in0.0 mm 0.01 in0.3 mm
11:30 PM 57.0°F13.9°C 48.5°F9.2°C 73% 6.9 mph WSW11.1 kmh WSW 12.1 mph19.5 kmh 29.63 in1003.4 mb 0.00 in0.0 mm 0.00 in0.0 mm 0.01 in0.3 mm
11:45 PM 57.0°F13.9°C 48.1°F8.9°C 72% 6.2 mph SW10.0 kmh SW 13.6 mph21.9 kmh 29.62 in1003.0 mb 0.00 in0.0 mm 0.00 in0.0 mm 0.01 in0.3 mm